Time;durP1;ratioP1;P1;durP2;ratioP2;P2;SDS_P1;SDS_P2;PMS_P1;PMS_P2;Temp;Humidity;BMP_temperature;BMP_pressure;BME280_temperature;BME280_humidity;BME280_pressure;Samples;Min_cycle;Max_cycle;Signal;HPM_P1;HPM_P2
2021/12/26 00:01:40;;;;;;;9.27;5.80;;;;;;;;;;5109102;28;20199;-79
2021/12/26 00:04:07;;;;;;;10.27;6.63;;;;;;;;;;5108908;28;20168;-79
2021/12/26 00:06:33;;;;;;;11.67;6.73;;;;;;;;;;5092151;28;20176;-79
2021/12/26 00:09:00;;;;;;;9.60;6.30;;;;;;;;;;5092101;28;20187;-79
2021/12/26 00:11:26;;;;;;;8.77;6.17;;;;;;;;;;5108654;28;20176;-79
2021/12/26 00:13:54;;;;;;;9.33;6.57;;;;;;;;;;5091856;28;20592;-79
2021/12/26 00:16:20;;;;;;;9.37;5.53;;;;;;;;;;5108759;28;20190;-79
2021/12/26 00:18:47;;;;;;;9.20;5.97;;;;;;;;;;5108191;28;20215;-79
2021/12/26 00:21:18;;;;;;;8.73;5.93;;;;;;;;;;5091588;28;20711;-79
2021/12/26 00:23:44;;;;;;;12.10;7.77;;;;;;;;;;5108831;28;20179;-79
2021/12/26 00:26:10;;;;;;;8.57;5.80;;;;;;;;;;5108710;28;20175;-79
2021/12/26 00:28:37;;;;;;;8.47;6.13;;;;;;;;;;5108428;28;20203;-79
2021/12/26 00:31:04;;;;;;;8.80;6.03;;;;;;;;;;5097114;28;20177;-79
2021/12/26 00:33:31;;;;;;;7.50;5.43;;;;;;;;;;5094846;28;20187;-79
2021/12/26 00:35:57;;;;;;;9.73;6.20;;;;;;;;;;5078143;28;20193;-79
2021/12/26 00:38:23;;;;;;;14.40;9.17;;;;;;;;;;5078169;28;20208;-79
2021/12/26 00:40:50;;;;;;;10.43;6.00;;;;;;;;;;5077649;28;20219;-79
2021/12/26 00:43:16;;;;;;;9.33;5.67;;;;;;;;;;5078123;28;20615;-79
2021/12/26 00:45:43;;;;;;;8.20;5.47;;;;;;;;;;5078003;28;20180;-79
2021/12/26 00:48:09;;;;;;;9.33;6.40;;;;;;;;;;5094499;28;20233;-79
2021/12/26 00:50:37;;;;;;;9.33;5.83;;;;;;;;;;5077533;28;20184;-79
2021/12/26 00:53:03;;;;;;;10.37;6.07;;;;;;;;;;5077534;28;20183;-79
2021/12/26 00:55:29;;;;;;;8.50;5.40;;;;;;;;;;5077869;28;20551;-79
2021/12/26 00:57:55;;;;;;;8.70;5.67;;;;;;;;;;5094241;28;20196;-79
2021/12/26 01:00:31;;;;;;;9.50;5.87;;;;;;;;;;5077330;28;20267;-79
2021/12/26 01:02:59;;;;;;;9.40;5.63;;;;;;;;;;5094370;28;20608;-79
2021/12/26 01:05:26;;;;;;;8.47;5.53;;;;;;;;;;5094151;28;20266;-79
2021/12/26 01:08:03;;;;;;;9.43;5.70;;;;;;;;;;5077518;28;20580;-79
2021/12/26 01:10:34;;;;;;;8.73;5.50;;;;;;;;;;5094040;28;20255;-79
2021/12/26 01:13:11;;;;;;;10.37;6.03;;;;;;;;;;5077529;28;20664;-79
2021/12/26 01:15:37;;;;;;;9.20;5.87;;;;;;;;;;5078733;28;20176;-79
2021/12/26 01:18:03;;;;;;;8.00;5.80;;;;;;;;;;5093689;28;20482;-79
2021/12/26 01:23:15;;;;;;;8.33;6.07;;;;;;;;;;5095127;28;20259;-80
2021/12/26 01:25:42;;;;;;;9.97;6.40;;;;;;;;;;5077210;28;20179;-80
2021/12/26 01:28:08;;;;;;;9.07;6.20;;;;;;;;;;5093752;28;20555;-80
2021/12/26 01:30:38;;;;;;;10.03;5.77;;;;;;;;;;5077116;28;20191;-80
2021/12/26 01:33:04;;;;;;;9.37;6.30;;;;;;;;;;5077687;28;20179;-80
2021/12/26 01:35:30;;;;;;;8.27;5.57;;;;;;;;;;5093760;28;20916;-80
2021/12/26 01:37:56;;;;;;;8.63;5.70;;;;;;;;;;5093283;28;20551;-80
2021/12/26 01:40:22;;;;;;;8.80;5.73;;;;;;;;;;5076687;28;20184;-80
2021/12/26 01:42:48;;;;;;;17.57;10.50;;;;;;;;;;5075985;28;20176;-80
2021/12/26 01:45:15;;;;;;;9.10;6.23;;;;;;;;;;5076656;28;20183;-80
2021/12/26 01:47:41;;;;;;;9.30;5.80;;;;;;;;;;5076555;28;20192;-80
2021/12/26 01:50:08;;;;;;;9.40;5.87;;;;;;;;;;5076478;28;20643;-80
2021/12/26 01:52:34;;;;;;;8.60;5.80;;;;;;;;;;5093086;28;20169;-80
2021/12/26 01:55:20;;;;;;;8.53;5.97;;;;;;;;;;5093430;28;20206;-80
2021/12/26 01:57:46;;;;;;;16.83;9.80;;;;;;;;;;5093699;28;20574;-80
2021/12/26 02:00:12;;;;;;;10.37;6.40;;;;;;;;;;5093319;28;20267;-80
2021/12/26 02:02:38;;;;;;;8.33;5.83;;;;;;;;;;5092869;28;20207;-80
2021/12/26 02:05:05;;;;;;;8.97;5.70;;;;;;;;;;5092730;28;20180;-80
2021/12/26 02:07:31;;;;;;;9.13;5.93;;;;;;;;;;5076267;28;20204;-80
2021/12/26 02:09:57;;;;;;;10.00;5.97;;;;;;;;;;5076453;28;20329;-80
2021/12/26 02:12:23;;;;;;;10.70;6.40;;;;;;;;;;5076272;28;20180;-80
2021/12/26 02:14:49;;;;;;;9.83;6.20;;;;;;;;;;5093396;28;20176;-80
2021/12/26 02:17:18;;;;;;;8.80;5.93;;;;;;;;;;5076121;28;20203;-80
2021/12/26 02:19:44;;;;;;;8.63;6.13;;;;;;;;;;5092673;28;20204;-80
2021/12/26 02:22:15;;;;;;;9.67;6.27;;;;;;;;;;5092667;28;20181;-80
2021/12/26 02:27:31;;;;;;;11.13;6.33;;;;;;;;;;5092818;28;20674;-80
2021/12/26 02:29:57;;;;;;;9.00;5.87;;;;;;;;;;5092882;28;20183;-80
2021/12/26 02:32:23;;;;;;;9.93;6.20;;;;;;;;;;5075854;28;20643;-80
2021/12/26 02:34:49;;;;;;;10.60;6.90;;;;;;;;;;5075846;28;20188;-79
2021/12/26 02:37:16;;;;;;;10.80;6.90;;;;;;;;;;5092469;28;20670;-79
2021/12/26 02:39:42;;;;;;;10.97;7.47;;;;;;;;;;5075782;28;20212;-79
2021/12/26 02:42:08;;;;;;;9.73;6.43;;;;;;;;;;5075507;28;20230;-79
2021/12/26 02:44:34;;;;;;;11.03;6.50;;;;;;;;;;5075669;28;20225;-79
2021/12/26 02:47:00;;;;;;;8.23;5.60;;;;;;;;;;5075723;28;20803;-79
2021/12/26 02:49:26;;;;;;;9.40;6.07;;;;;;;;;;5075386;28;20586;-79
2021/12/26 02:51:53;;;;;;;11.60;5.93;;;;;;;;;;5092179;28;20253;-79
2021/12/26 02:54:23;;;;;;;9.20;5.87;;;;;;;;;;5075182;28;20180;-79
2021/12/26 02:56:49;;;;;;;8.60;6.10;;;;;;;;;;5092473;28;20737;-79
2021/12/26 02:59:15;;;;;;;10.40;6.93;;;;;;;;;;5092082;28;20200;-79
2021/12/26 03:01:41;;;;;;;10.53;6.70;;;;;;;;;;5075438;28;20173;-79
2021/12/26 03:04:09;;;;;;;10.20;6.40;;;;;;;;;;5075339;28;20267;-79
2021/12/26 03:09:20;;;;;;;8.80;5.67;;;;;;;;;;5093801;28;20194;-79
2021/12/26 03:11:47;;;;;;;9.03;5.50;;;;;;;;;;5091606;28;20243;-79
2021/12/26 03:14:13;;;;;;;11.57;6.53;;;;;;;;;;5092233;28;20203;-79
2021/12/26 03:16:46;;;;;;;12.23;7.27;;;;;;;;;;5091946;28;20273;-79
2021/12/26 03:19:12;;;;;;;8.73;6.33;;;;;;;;;;5092003;28;20220;-79
2021/12/26 03:21:38;;;;;;;10.30;6.10;;;;;;;;;;5075266;28;20172;-79
2021/12/26 03:24:05;;;;;;;8.97;5.90;;;;;;;;;;5075433;28;20177;-79
2021/12/26 03:26:31;;;;;;;10.67;7.07;;;;;;;;;;5091856;28;20191;-79
2021/12/26 03:28:57;;;;;;;9.70;6.47;;;;;;;;;;5092648;28;20178;-79
2021/12/26 03:31:23;;;;;;;9.87;6.60;;;;;;;;;;5091771;28;20176;-79
2021/12/26 03:33:49;;;;;;;10.80;6.47;;;;;;;;;;5075420;28;20176;-79
2021/12/26 03:36:15;;;;;;;10.40;6.83;;;;;;;;;;5075194;28;20230;-79
2021/12/26 03:38:41;;;;;;;12.27;7.07;;;;;;;;;;5075020;28;20578;-79
2021/12/26 03:41:07;;;;;;;10.37;6.83;;;;;;;;;;5075060;28;20536;-79
2021/12/26 03:43:33;;;;;;;10.27;6.03;;;;;;;;;;5091849;28;20187;-79
2021/12/26 03:46:00;;;;;;;9.80;6.47;;;;;;;;;;5091938;28;20169;-79
2021/12/26 03:48:26;;;;;;;8.77;6.13;;;;;;;;;;5091579;28;20564;-79
2021/12/26 03:50:54;;;;;;;9.00;5.97;;;;;;;;;;5074842;28;20185;-79
2021/12/26 03:53:20;;;;;;;11.10;6.37;;;;;;;;;;5091773;28;20181;-79
2021/12/26 03:55:47;;;;;;;10.63;6.43;;;;;;;;;;5091865;28;20208;-79
2021/12/26 03:58:13;;;;;;;9.63;6.37;;;;;;;;;;5091867;28;20196;-79
2021/12/26 04:00:41;;;;;;;10.27;6.40;;;;;;;;;;5091561;28;20600;-79
2021/12/26 04:03:07;;;;;;;9.90;6.10;;;;;;;;;;5075001;28;20181;-79
2021/12/26 04:05:34;;;;;;;9.07;5.87;;;;;;;;;;5092788;28;20179;-79
2021/12/26 04:08:00;;;;;;;8.43;5.77;;;;;;;;;;5095385;28;20193;-79
2021/12/26 04:10:26;;;;;;;10.13;6.17;;;;;;;;;;5095512;28;20172;-79
2021/12/26 04:12:54;;;;;;;13.10;6.70;;;;;;;;;;5095407;28;20317;-79
2021/12/26 04:15:22;;;;;;;9.67;6.50;;;;;;;;;;5095281;28;20233;-79
2021/12/26 04:17:51;;;;;;;9.87;6.23;;;;;;;;;;5078281;28;20192;-79
2021/12/26 04:20:18;;;;;;;9.17;6.10;;;;;;;;;;5078403;28;20216;-79
2021/12/26 04:22:44;;;;;;;8.60;6.00;;;;;;;;;;5095244;28;20175;-79
2021/12/26 04:25:10;;;;;;;12.07;6.90;;;;;;;;;;5094951;28;20766;-80
2021/12/26 04:27:36;;;;;;;9.50;5.77;;;;;;;;;;5095152;28;20253;-80
2021/12/26 04:30:05;;;;;;;11.17;6.53;;;;;;;;;;5095247;28;20650;-80
2021/12/26 04:32:31;;;;;;;9.67;6.50;;;;;;;;;;5077934;28;20642;-80
2021/12/26 04:34:57;;;;;;;10.53;6.50;;;;;;;;;;5094951;28;20180;-80
2021/12/26 04:37:23;;;;;;;10.37;6.40;;;;;;;;;;5077979;28;20203;-80
2021/12/26 04:39:49;;;;;;;12.67;6.73;;;;;;;;;;5078039;28;20204;-80
2021/12/26 04:42:16;;;;;;;11.17;6.40;;;;;;;;;;5078019;28;20233;-80
2021/12/26 04:44:42;;;;;;;10.47;6.80;;;;;;;;;;5094571;28;20211;-79
2021/12/26 04:47:08;;;;;;;10.23;6.07;;;;;;;;;;5094648;28;20188;-80
2021/12/26 04:49:34;;;;;;;10.67;6.13;;;;;;;;;;5077607;28;20646;-80
2021/12/26 04:52:00;;;;;;;10.07;6.73;;;;;;;;;;5077966;28;20188;-79
2021/12/26 04:54:26;;;;;;;11.93;6.83;;;;;;;;;;5094041;28;20176;-77
2021/12/26 04:56:52;;;;;;;11.73;7.27;;;;;;;;;;5077617;28;20208;-79
2021/12/26 04:59:18;;;;;;;10.53;6.90;;;;;;;;;;5077573;28;20678;-79
2021/12/26 05:01:44;;;;;;;9.80;6.47;;;;;;;;;;5077736;28;20180;-80
2021/12/26 05:04:11;;;;;;;11.63;6.90;;;;;;;;;;5077185;28;20189;-80
2021/12/26 05:06:37;;;;;;;11.70;6.70;;;;;;;;;;5094257;28;20168;-80
2021/12/26 05:09:04;;;;;;;11.57;6.80;;;;;;;;;;5094638;28;20262;-80
2021/12/26 05:11:30;;;;;;;9.60;6.03;;;;;;;;;;5094199;28;20588;-80
2021/12/26 05:13:56;;;;;;;10.13;6.27;;;;;;;;;;5077529;28;20254;-80
2021/12/26 05:16:22;;;;;;;10.97;6.83;;;;;;;;;;5077419;28;20182;-80
2021/12/26 05:18:48;;;;;;;11.70;7.20;;;;;;;;;;5093835;28;20294;-80
2021/12/26 05:21:14;;;;;;;11.63;7.10;;;;;;;;;;5077611;28;20230;-80
2021/12/26 05:23:40;;;;;;;11.70;7.13;;;;;;;;;;5077428;28;20187;-80
2021/12/26 05:26:06;;;;;;;10.53;6.50;;;;;;;;;;5077250;28;20271;-80
2021/12/26 05:28:34;;;;;;;12.33;7.10;;;;;;;;;;5077110;28;20287;-80
2021/12/26 05:31:00;;;;;;;11.90;6.77;;;;;;;;;;5077214;28;20179;-80
2021/12/26 05:33:26;;;;;;;11.70;7.10;;;;;;;;;;5077192;28;20184;-77
2021/12/26 05:35:52;;;;;;;15.20;7.67;;;;;;;;;;5093579;28;20179;-80
2021/12/26 05:38:18;;;;;;;11.90;6.80;;;;;;;;;;5093506;28;20200;-79
2021/12/26 05:40:45;;;;;;;11.63;6.73;;;;;;;;;;5093457;28;20210;-80
2021/12/26 05:43:11;;;;;;;12.07;7.43;;;;;;;;;;5093518;28;20558;-80
2021/12/26 05:45:38;;;;;;;11.73;7.77;;;;;;;;;;5093229;28;20226;-78
2021/12/26 05:48:04;;;;;;;10.83;6.73;;;;;;;;;;5076584;28;20284;-77
2021/12/26 05:50:30;;;;;;;11.70;7.07;;;;;;;;;;5092876;28;20172;-78
2021/12/26 05:52:56;;;;;;;10.87;6.27;;;;;;;;;;5076395;28;20179;-78
2021/12/26 05:55:22;;;;;;;13.03;6.80;;;;;;;;;;5076295;28;20177;-78
2021/12/26 05:57:49;;;;;;;12.77;7.67;;;;;;;;;;5076177;28;20244;-78
2021/12/26 06:00:16;;;;;;;12.57;7.07;;;;;;;;;;5092664;28;20208;-80
2021/12/26 06:02:42;;;;;;;11.47;6.70;;;;;;;;;;5075831;28;20176;-78
2021/12/26 06:05:08;;;;;;;11.27;7.07;;;;;;;;;;5075938;28;20592;-78
2021/12/26 06:07:34;;;;;;;12.13;6.97;;;;;;;;;;5076042;28;20232;-78
2021/12/26 06:10:00;;;;;;;11.73;6.53;;;;;;;;;;5092554;28;20180;-82
2021/12/26 06:12:26;;;;;;;12.03;7.60;;;;;;;;;;5075017;28;20176;-82
2021/12/26 06:14:52;;;;;;;11.00;6.63;;;;;;;;;;5092172;28;20230;-82
2021/12/26 06:17:18;;;;;;;11.47;7.40;;;;;;;;;;5075416;28;20204;-82
2021/12/26 06:19:44;;;;;;;11.23;7.20;;;;;;;;;;5075125;28;20208;-82
2021/12/26 06:22:10;;;;;;;11.47;7.50;;;;;;;;;;5075360;28;20191;-82
2021/12/26 06:24:36;;;;;;;12.80;7.20;;;;;;;;;;5075518;28;20238;-82
2021/12/26 06:27:03;;;;;;;12.43;7.37;;;;;;;;;;5075074;28;20200;-82
2021/12/26 06:29:29;;;;;;;14.07;8.47;;;;;;;;;;5091192;28;20176;-82
2021/12/26 06:31:55;;;;;;;9.53;5.87;;;;;;;;;;5075289;28;20211;-81
2021/12/26 06:34:21;;;;;;;15.83;8.27;;;;;;;;;;5092407;28;20195;-80
2021/12/26 06:36:47;;;;;;;14.40;8.07;;;;;;;;;;5092368;28;20180;-80
2021/12/26 06:39:13;;;;;;;10.90;6.77;;;;;;;;;;5091924;28;20327;-80
2021/12/26 06:41:39;;;;;;;9.87;6.77;;;;;;;;;;5074665;28;20185;-79
2021/12/26 06:44:07;;;;;;;10.63;6.87;;;;;;;;;;5074772;28;20180;-78
2021/12/26 06:46:33;;;;;;;10.27;6.60;;;;;;;;;;5091682;28;20617;-77
2021/12/26 06:48:59;;;;;;;11.43;6.70;;;;;;;;;;5091584;28;20196;-77
2021/12/26 06:51:25;;;;;;;9.73;6.53;;;;;;;;;;5091092;28;20180;-78
2021/12/26 06:53:51;;;;;;;9.63;6.90;;;;;;;;;;5074726;28;20282;-77
2021/12/26 06:56:17;;;;;;;10.43;7.07;;;;;;;;;;5074668;28;20169;-79
2021/12/26 06:58:43;;;;;;;9.80;6.60;;;;;;;;;;5091490;28;20200;-79
2021/12/26 07:01:10;;;;;;;10.47;6.83;;;;;;;;;;5091505;28;20293;-79
2021/12/26 07:03:36;;;;;;;12.60;7.63;;;;;;;;;;5074763;28;20773;-77
2021/12/26 07:06:02;;;;;;;10.83;7.20;;;;;;;;;;5091528;28;20191;-82
2021/12/26 07:08:29;;;;;;;12.20;7.83;;;;;;;;;;5091343;28;20194;-80
2021/12/26 07:10:55;;;;;;;12.63;7.03;;;;;;;;;;5074312;28;20179;-80
2021/12/26 07:13:21;;;;;;;12.97;7.93;;;;;;;;;;5090888;28;20625;-80
2021/12/26 07:15:47;;;;;;;13.53;7.43;;;;;;;;;;5074637;28;20306;-80
2021/12/26 07:18:13;;;;;;;12.80;7.43;;;;;;;;;;5074598;28;20312;-81
2021/12/26 07:20:40;;;;;;;11.20;7.63;;;;;;;;;;5091119;28;20169;-81
2021/12/26 07:23:06;;;;;;;12.07;7.57;;;;;;;;;;5074518;28;20173;-80
2021/12/26 07:25:33;;;;;;;10.97;7.00;;;;;;;;;;5074760;28;20172;-80
2021/12/26 07:27:59;;;;;;;12.07;7.33;;;;;;;;;;5091155;28;20279;-81
2021/12/26 07:30:26;;;;;;;10.63;6.97;;;;;;;;;;5091156;28;20177;-81
2021/12/26 07:32:52;;;;;;;13.10;7.60;;;;;;;;;;5090875;28;20563;-79
2021/12/26 07:35:18;;;;;;;12.43;7.53;;;;;;;;;;5091165;28;20178;-78
2021/12/26 07:40:48;;;;;;;9.03;6.70;;;;;;;;;;5094304;28;20195;-81
2021/12/26 07:43:24;;;;;;;12.83;7.67;;;;;;;;;;5095089;28;20692;-82
2021/12/26 07:45:50;;;;;;;10.17;6.43;;;;;;;;;;5078665;28;20185;-81
2021/12/26 07:48:16;;;;;;;13.67;7.30;;;;;;;;;;5095713;28;20686;-80
2021/12/26 07:50:42;;;;;;;13.00;7.40;;;;;;;;;;5094920;28;20214;-82
2021/12/26 07:53:11;;;;;;;11.60;6.50;;;;;;;;;;5078788;28;20180;-82
2021/12/26 07:55:37;;;;;;;11.83;6.87;;;;;;;;;;5078915;28;20204;-82
2021/12/26 07:58:04;;;;;;;11.90;7.57;;;;;;;;;;5095127;28;20215;-83
2021/12/26 08:00:30;;;;;;;13.97;7.87;;;;;;;;;;5095336;28;20176;-81
2021/12/26 08:02:57;;;;;;;12.23;7.13;;;;;;;;;;5094982;28;20183;-82
2021/12/26 08:05:23;;;;;;;12.63;7.23;;;;;;;;;;5095198;28;20180;-81
2021/12/26 08:07:50;;;;;;;13.10;7.63;;;;;;;;;;5078382;28;20206;-81
2021/12/26 08:10:16;;;;;;;14.47;7.83;;;;;;;;;;5094867;28;20210;-83
2021/12/26 08:12:42;;;;;;;13.83;7.90;;;;;;;;;;5094885;28;20715;-81
2021/12/26 08:15:08;;;;;;;13.53;7.57;;;;;;;;;;5078302;28;20176;-81
2021/12/26 08:17:35;;;;;;;15.23;8.23;;;;;;;;;;5078324;28;20196;-82
2021/12/26 08:20:02;;;;;;;13.80;8.03;;;;;;;;;;5094685;28;20299;-82
2021/12/26 08:22:28;;;;;;;13.23;7.63;;;;;;;;;;5094621;28;20200;-82
2021/12/26 08:24:54;;;;;;;12.33;7.83;;;;;;;;;;5078040;28;20191;-82
2021/12/26 08:27:20;;;;;;;12.37;7.63;;;;;;;;;;5094780;28;20269;-82
2021/12/26 08:29:47;;;;;;;12.70;7.03;;;;;;;;;;5077893;28;20539;-82
2021/12/26 08:32:15;;;;;;;15.70;7.07;;;;;;;;;;5077803;28;20646;-81
2021/12/26 08:34:43;;;;;;;14.27;7.77;;;;;;;;;;5078495;28;20208;-82
2021/12/26 08:37:09;;;;;;;13.87;8.20;;;;;;;;;;5077964;28;20251;-82
2021/12/26 08:39:36;;;;;;;11.20;6.77;;;;;;;;;;5077637;28;20544;-82
2021/12/26 08:42:03;;;;;;;12.97;7.50;;;;;;;;;;5093990;28;20577;-81
2021/12/26 08:45:00;;;;;;;19.67;12.47;;;;;;;;;;5094179;28;20200;-82
2021/12/26 08:47:26;;;;;;;15.43;9.27;;;;;;;;;;5094234;28;20666;-81
2021/12/26 08:49:53;;;;;;;14.03;7.50;;;;;;;;;;5077826;28;20181;-82
2021/12/26 08:52:19;;;;;;;14.20;7.67;;;;;;;;;;5093920;28;20176;-81
2021/12/26 08:54:45;;;;;;;12.47;7.60;;;;;;;;;;5094418;28;20639;-81
2021/12/26 08:57:11;;;;;;;14.47;8.50;;;;;;;;;;5093919;28;20203;-82
2021/12/26 08:59:38;;;;;;;13.43;8.40;;;;;;;;;;5077439;28;20229;-83
2021/12/26 09:02:08;;;;;;;26.47;15.17;;;;;;;;;;5077395;28;20635;-81
2021/12/26 09:04:38;;;;;;;21.87;10.97;;;;;;;;;;5094406;28;20199;-81
2021/12/26 09:07:05;;;;;;;18.17;10.73;;;;;;;;;;5077627;28;20204;-81
2021/12/26 09:09:31;;;;;;;18.65;12.15;;;;;;;;;;5093064;28;20408;-81
2021/12/26 09:11:57;;;;;;;16.53;9.80;;;;;;;;;;5077284;28;20222;-77
2021/12/26 09:14:23;;;;;;;14.97;8.23;;;;;;;;;;5094044;28;20173;-82
2021/12/26 09:16:50;;;;;;;16.07;8.73;;;;;;;;;;5077357;28;20204;-81
2021/12/26 09:19:16;;;;;;;16.53;9.53;;;;;;;;;;5093792;28;20212;-82
2021/12/26 09:21:42;;;;;;;12.77;8.07;;;;;;;;;;5076801;28;20201;-81
2021/12/26 09:24:08;;;;;;;11.17;7.63;;;;;;;;;;5076773;28;20168;-82
2021/12/26 09:26:34;;;;;;;13.73;8.23;;;;;;;;;;5093476;28;20264;-81
2021/12/26 09:29:00;;;;;;;12.03;7.43;;;;;;;;;;5076690;28;20177;-82
2021/12/26 09:31:27;;;;;;;13.10;8.03;;;;;;;;;;5076487;28;20180;-82
2021/12/26 09:33:53;;;;;;;14.77;8.83;;;;;;;;;;5077021;28;20178;-81
2021/12/26 09:36:19;;;;;;;13.87;8.53;;;;;;;;;;5076638;28;20204;-81
2021/12/26 09:38:45;;;;;;;20.10;11.97;;;;;;;;;;5093392;28;20212;-81
2021/12/26 09:41:12;;;;;;;13.60;7.87;;;;;;;;;;5093021;28;20656;-81
2021/12/26 09:46:32;;;;;;;14.57;8.57;;;;;;;;;;5094635;28;20257;-80
2021/12/26 09:48:58;;;;;;;16.00;8.93;;;;;;;;;;5093302;28;20652;-80
2021/12/26 09:51:25;;;;;;;12.80;8.33;;;;;;;;;;5076529;28;20254;-81
2021/12/26 09:53:51;;;;;;;16.90;9.53;;;;;;;;;;5076428;28;20184;-81
2021/12/26 09:56:18;;;;;;;19.90;12.13;;;;;;;;;;5093138;28;20182;-81
2021/12/26 09:59:05;;;;;;;26.37;13.40;;;;;;;;;;5093290;28;20233;-79
2021/12/26 10:01:36;;;;;;;16.90;9.77;;;;;;;;;;5093460;28;20169;-82
2021/12/26 10:04:03;;;;;;;17.47;10.50;;;;;;;;;;5092493;28;20765;-81
2021/12/26 10:06:33;;;;;;;20.83;12.27;;;;;;;;;;5076516;28;20177;-81
2021/12/26 10:09:08;;;;;;;18.87;11.33;;;;;;;;;;5092902;28;20184;-81
2021/12/26 10:11:35;;;;;;;14.80;8.97;;;;;;;;;;5076876;28;20177;-80
2021/12/26 10:14:06;;;;;;;23.17;12.40;;;;;;;;;;5076854;28;20181;-78
2021/12/26 10:16:35;;;;;;;20.60;12.63;;;;;;;;;;5076037;28;20275;-79
2021/12/26 10:19:03;;;;;;;18.30;10.77;;;;;;;;;;5092585;28;20245;-78
2021/12/26 10:21:40;;;;;;;14.20;9.10;;;;;;;;;;5092283;28;20272;-79
2021/12/26 10:24:08;;;;;;;16.63;9.17;;;;;;;;;;5075680;28;20696;-79
2021/12/26 10:26:36;;;;;;;16.47;9.73;;;;;;;;;;5075465;28;20273;-78
2021/12/26 10:29:08;;;;;;;15.90;9.33;;;;;;;;;;5092494;28;20215;-79
2021/12/26 10:31:35;;;;;;;19.17;11.40;;;;;;;;;;5092447;28;20182;-78
2021/12/26 10:34:01;;;;;;;18.57;10.70;;;;;;;;;;5092275;28;20182;-79
2021/12/26 10:36:27;;;;;;;17.23;8.97;;;;;;;;;;5092560;28;20200;-79
2021/12/26 10:39:08;;;;;;;15.93;9.23;;;;;;;;;;5092250;28;20202;-79
2021/12/26 10:41:34;;;;;;;16.23;9.00;;;;;;;;;;5075245;28;20179;-79
2021/12/26 10:44:08;;;;;;;14.37;8.17;;;;;;;;;;5075380;28;20201;-78
2021/12/26 10:46:35;;;;;;;13.47;8.17;;;;;;;;;;5091886;28;20206;-79
2021/12/26 10:49:27;;;;;;;14.63;9.03;;;;;;;;;;5075286;28;20643;-78
2021/12/26 10:51:53;;;;;;;14.77;9.17;;;;;;;;;;5068615;28;20190;-78
2021/12/26 10:54:21;;;;;;;14.83;8.73;;;;;;;;;;5092033;28;20570;-78
2021/12/26 10:57:10;;;;;;;14.97;8.67;;;;;;;;;;5075309;28;20276;-78
2021/12/26 10:59:37;;;;;;;15.80;8.70;;;;;;;;;;5091869;28;20617;-78
2021/12/26 11:02:03;;;;;;;15.73;8.67;;;;;;;;;;5091853;28;20623;-78
2021/12/26 11:04:29;;;;;;;15.73;8.67;;;;;;;;;;5091940;28;20173;-78
2021/12/26 11:06:58;;;;;;;15.07;8.30;;;;;;;;;;5091982;28;20671;-78
2021/12/26 11:09:24;;;;;;;14.10;8.90;;;;;;;;;;5092162;28;20257;-78
2021/12/26 11:11:58;;;;;;;14.43;7.93;;;;;;;;;;5075125;28;20210;-78
2021/12/26 11:14:24;;;;;;;13.80;8.07;;;;;;;;;;5075087;28;20184;-77
2021/12/26 11:16:50;;;;;;;12.27;7.33;;;;;;;;;;5074741;28;20744;-77
2021/12/26 11:19:16;;;;;;;12.70;8.17;;;;;;;;;;5091412;28;20240;-77
2021/12/26 11:21:43;;;;;;;12.40;8.40;;;;;;;;;;5091607;28;20172;-78
2021/12/26 11:24:09;;;;;;;13.17;8.47;;;;;;;;;;5075027;28;20173;-81
2021/12/26 11:26:35;;;;;;;14.20;7.90;;;;;;;;;;5092851;28;20259;-81
2021/12/26 11:29:01;;;;;;;13.30;8.17;;;;;;;;;;5075826;28;20177;-80
2021/12/26 11:34:00;;;;;;;13.97;8.33;;;;;;;;;;4994072;28;20307;-81
2021/12/26 11:36:29;;;;;;;14.37;8.63;;;;;;;;;;4995640;28;20582;-81
2021/12/26 11:38:57;;;;;;;16.27;8.80;;;;;;;;;;4995832;28;20227;-81
2021/12/26 11:41:31;;;;;;;21.23;12.07;;;;;;;;;;4993974;28;20622;-80
2021/12/26 11:44:16;;;;;;;63.00;29.90;;;;;;;;;;4991180;28;20196;-79
2021/12/26 11:46:42;;;;;;;56.27;25.53;;;;;;;;;;4991322;28;20177;-79
2021/12/26 11:49:14;;;;;;;15.53;11.30;;;;;;;;;;4991059;28;20173;-80
2021/12/26 11:51:40;;;;;;;15.23;10.70;;;;;;;;;;4990780;28;20184;-79
2021/12/26 11:54:25;;;;;;;12.87;8.30;;;;;;;;;;4991072;28;20247;-79
2021/12/26 11:56:54;;;;;;;13.77;8.07;;;;;;;;;;4976734;28;20179;-79
2021/12/26 11:59:39;;;;;;;12.53;8.67;;;;;;;;;;4974797;28;20276;-79
2021/12/26 12:02:05;;;;;;;13.53;8.67;;;;;;;;;;4975049;28;20691;-79
2021/12/26 12:04:32;;;;;;;15.33;9.63;;;;;;;;;;4974377;28;20278;-79
2021/12/26 12:07:03;;;;;;;14.60;8.87;;;;;;;;;;4974662;28;20179;-79
2021/12/26 12:09:29;;;;;;;14.73;9.27;;;;;;;;;;4974671;28;20170;-79
2021/12/26 12:11:59;;;;;;;14.60;9.00;;;;;;;;;;4976087;28;20193;-79
2021/12/26 12:14:45;;;;;;;14.30;9.13;;;;;;;;;;4974449;28;20178;-79
2021/12/26 12:17:14;;;;;;;14.10;9.17;;;;;;;;;;4974490;28;20235;-79
2021/12/26 12:20:00;;;;;;;15.00;9.40;;;;;;;;;;4973999;28;20203;-79
2021/12/26 12:22:26;;;;;;;14.73;9.40;;;;;;;;;;4973225;28;20286;-79
2021/12/26 12:24:53;;;;;;;15.30;9.23;;;;;;;;;;4974182;28;20177;-79
2021/12/26 12:27:20;;;;;;;13.67;8.60;;;;;;;;;;4976235;28;20188;-79
2021/12/26 12:29:50;;;;;;;15.57;10.33;;;;;;;;;;4977231;28;20184;-79
2021/12/26 12:32:18;;;;;;;14.10;9.50;;;;;;;;;;4976843;28;20216;-78
2021/12/26 12:34:47;;;;;;;15.97;9.43;;;;;;;;;;4977306;28;20177;-78
2021/12/26 12:37:26;;;;;;;15.87;9.63;;;;;;;;;;4976964;28;20183;-78
2021/12/26 12:40:07;;;;;;;16.47;9.67;;;;;;;;;;4977150;28;20637;-78
2021/12/26 12:42:35;;;;;;;18.53;10.47;;;;;;;;;;4976709;28;20196;-78
2021/12/26 12:45:01;;;;;;;16.87;11.37;;;;;;;;;;4972047;28;20242;-78
2021/12/26 12:47:27;;;;;;;17.07;10.27;;;;;;;;;;4976590;28;20184;-78
2021/12/26 12:49:55;;;;;;;18.77;11.53;;;;;;;;;;4976316;28;20184;-78
2021/12/26 12:52:36;;;;;;;15.03;9.60;;;;;;;;;;4975923;28;20205;-78
2021/12/26 12:55:03;;;;;;;17.43;9.77;;;;;;;;;;4959888;28;20277;-78
2021/12/26 12:57:34;;;;;;;15.03;9.30;;;;;;;;;;4975129;28;20184;-81
2021/12/26 13:00:01;;;;;;;15.30;8.97;;;;;;;;;;4959844;28;20574;-79
2021/12/26 13:02:30;;;;;;;17.10;9.90;;;;;;;;;;4975177;28;20204;-79
2021/12/26 13:04:56;;;;;;;18.17;9.60;;;;;;;;;;4958149;28;20185;-83
2021/12/26 13:07:25;;;;;;;17.47;9.97;;;;;;;;;;4958081;29;20181;-81
2021/12/26 13:10:02;;;;;;;15.90;9.33;;;;;;;;;;4974870;28;20173;-81
2021/12/26 13:12:28;;;;;;;16.90;9.63;;;;;;;;;;4974538;28;20268;-81
2021/12/26 13:14:56;;;;;;;18.27;10.10;;;;;;;;;;4958987;28;20320;-80
2021/12/26 13:17:22;;;;;;;17.83;9.77;;;;;;;;;;4957867;29;20232;-81
2021/12/26 13:19:54;;;;;;;17.07;9.67;;;;;;;;;;4959530;28;20201;-81
2021/12/26 13:22:20;;;;;;;16.57;9.83;;;;;;;;;;4959028;29;20203;-81
2021/12/26 13:24:47;;;;;;;14.50;8.83;;;;;;;;;;4975380;28;20187;-81
2021/12/26 13:27:22;;;;;;;14.60;9.30;;;;;;;;;;4959517;28;20181;-81
2021/12/26 13:29:49;;;;;;;18.13;10.17;;;;;;;;;;4959335;29;20176;-81
2021/12/26 13:32:15;;;;;;;17.40;9.40;;;;;;;;;;4958920;29;20761;-81
2021/12/26 13:34:41;;;;;;;16.93;10.33;;;;;;;;;;4974554;28;20215;-81
2021/12/26 13:37:07;;;;;;;19.23;10.80;;;;;;;;;;4974999;28;20212;-81
2021/12/26 13:39:33;;;;;;;18.47;10.77;;;;;;;;;;4970974;28;20196;-81
2021/12/26 13:41:59;;;;;;;19.87;10.80;;;;;;;;;;4992742;28;20231;-81
2021/12/26 13:44:25;;;;;;;16.60;10.67;;;;;;;;;;4988076;28;20181;-81
2021/12/26 13:46:59;;;;;;;18.80;11.03;;;;;;;;;;4950766;28;20212;-81
2021/12/26 13:49:25;;;;;;;15.43;9.77;;;;;;;;;;4991679;28;20190;-81
2021/12/26 13:51:55;;;;;;;18.77;10.93;;;;;;;;;;4976518;28;20340;-81
2021/12/26 13:54:39;;;;;;;19.27;11.13;;;;;;;;;;4975890;28;20195;-81
2021/12/26 13:57:11;;;;;;;17.23;10.60;;;;;;;;;;4959095;29;20173;-81
2021/12/26 13:59:38;;;;;;;20.00;10.90;;;;;;;;;;4958622;29;20200;-81
2021/12/26 14:02:07;;;;;;;17.40;10.73;;;;;;;;;;4965783;28;20698;-81
2021/12/26 14:04:37;;;;;;;18.83;10.57;;;;;;;;;;4994131;28;20180;-81
2021/12/26 14:07:07;;;;;;;17.40;10.40;;;;;;;;;;4992956;28;20172;-81
2021/12/26 14:09:37;;;;;;;17.77;10.47;;;;;;;;;;4993085;28;20222;-80
2021/12/26 14:12:04;;;;;;;18.10;10.37;;;;;;;;;;5007585;28;20214;-79
2021/12/26 14:14:35;;;;;;;19.83;10.73;;;;;;;;;;4961181;28;20203;-78
2021/12/26 14:20:05;;;;;;;18.57;10.33;;;;;;;;;;4994219;28;20323;-78
2021/12/26 14:22:31;;;;;;;18.77;10.57;;;;;;;;;;4992762;28;20257;-78
2021/12/26 14:24:57;;;;;;;20.07;10.43;;;;;;;;;;4964465;28;20184;-81
2021/12/26 14:27:23;;;;;;;18.80;10.73;;;;;;;;;;4970042;28;20186;-81
2021/12/26 14:29:59;;;;;;;15.97;9.63;;;;;;;;;;4970138;28;20186;-81
2021/12/26 14:32:26;;;;;;;18.57;11.10;;;;;;;;;;4999571;28;20215;-79
2021/12/26 14:34:52;;;;;;;17.27;10.70;;;;;;;;;;4994756;28;20183;-80
2021/12/26 14:37:25;;;;;;;18.03;11.47;;;;;;;;;;4977343;28;20194;-80
2021/12/26 14:39:55;;;;;;;17.70;10.27;;;;;;;;;;4992854;28;20672;-80
2021/12/26 14:42:25;;;;;;;18.00;11.13;;;;;;;;;;4992754;28;20223;-81
2021/12/26 14:44:51;;;;;;;18.50;11.03;;;;;;;;;;4992916;28;20233;-80
2021/12/26 14:47:23;;;;;;;18.93;10.57;;;;;;;;;;4992861;28;20179;-80
2021/12/26 14:49:50;;;;;;;19.23;10.57;;;;;;;;;;4992278;28;20311;-81
2021/12/26 14:52:18;;;;;;;16.37;10.10;;;;;;;;;;4960215;28;20257;-81
2021/12/26 14:55:11;;;;;;;18.57;10.07;;;;;;;;;;4992970;28;20654;-81